Time;durP1;ratioP1;P1;durP2;ratioP2;P2;SDS_P1;SDS_P2;PMS_P1;PMS_P2;Temp;Humidity;BMP_temperature;BMP_pressure;BME280_temperature;BME280_humidity;BME280_pressure;Samples;Min_cycle;Max_cycle;Signal;HPM_P1;HPM_P2
2021/11/06 00:00:46;;;;;;;6.70;3.85;;;7.80;71.30;;;;;;2322100;54;20968;-68
2021/11/06 00:03:14;;;;;;;6.00;3.97;;;7.80;71.50;;;;;;2329997;54;21666;-69
2021/11/06 00:05:41;;;;;;;7.65;3.60;;;7.70;71.40;;;;;;2588597;53;21056;-69
2021/11/06 00:08:07;;;;;;;5.53;3.65;;;7.70;71.40;;;;;;2342691;54;20948;-69
2021/11/06 00:10:34;;;;;;;6.68;4.15;;;7.70;71.40;;;;;;2343757;54;20965;-69
2021/11/06 00:13:00;;;;;;;6.45;3.65;;;7.60;71.40;;;;;;2562784;53;20909;-69
2021/11/06 00:15:29;;;;;;;6.70;4.20;;;7.60;71.40;;;;;;2342368;54;20981;-68
2021/11/06 00:17:56;;;;;;;6.12;3.37;;;7.60;71.40;;;;;;2566635;53;21414;-69
2021/11/06 00:20:22;;;;;;;6.47;3.65;;;7.60;71.50;;;;;;2554974;53;21875;-69
2021/11/06 00:22:50;;;;;;;6.95;4.15;;;7.50;71.40;;;;;;2311464;55;20945;-69
2021/11/06 00:25:23;;;;;;;8.55;4.10;;;7.50;71.30;;;;;;2316725;54;20984;-68
2021/11/06 00:27:52;;;;;;;7.43;4.05;;;7.40;71.30;;;;;;2547596;53;20953;-69
2021/11/06 00:30:18;;;;;;;7.45;4.10;;;7.40;71.30;;;;;;2335663;54;20942;-68
2021/11/06 00:32:45;;;;;;;6.43;3.58;;;7.40;71.40;;;;;;2329626;54;21013;-69
2021/11/06 00:35:14;;;;;;;8.23;4.57;;;7.30;71.30;;;;;;2342715;54;20937;-68
2021/11/06 00:37:42;;;;;;;7.80;4.50;;;7.30;71.30;;;;;;2342848;54;20984;-69
2021/11/06 00:40:09;;;;;;;6.55;3.90;;;7.30;71.40;;;;;;2588772;53;21784;-69
2021/11/06 00:42:37;;;;;;;7.70;4.40;;;7.20;71.40;;;;;;2587654;53;21016;-68
2021/11/06 00:45:05;;;;;;;6.55;4.05;;;7.20;71.30;;;;;;2329487;54;21066;-68
2021/11/06 00:47:31;;;;;;;6.20;3.72;;;7.20;71.30;;;;;;2307510;54;20956;-68
2021/11/06 00:49:58;;;;;;;7.25;3.92;;;7.20;71.30;;;;;;2336813;54;21028;-68
2021/11/06 00:52:27;;;;;;;12.63;4.43;;;7.10;71.10;;;;;;2561795;53;21001;-69
2021/11/06 00:54:57;;;;;;;7.10;3.78;;;7.10;71.30;;;;;;2342177;54;21001;-68
2021/11/06 00:57:23;;;;;;;6.80;3.58;;;7.10;71.40;;;;;;2318854;54;21003;-68
2021/11/06 00:59:49;;;;;;;5.03;3.17;;;7.00;71.40;;;;;;2567740;53;21009;-67
2021/11/06 01:02:16;;;;;;;5.65;2.85;;;7.00;71.40;;;;;;2341996;54;21513;-69
2021/11/06 01:04:43;;;;;;;5.10;3.15;;;7.00;71.50;;;;;;2580809;53;21037;-68
2021/11/06 01:07:10;;;;;;;5.72;2.40;;;7.00;71.60;;;;;;2319887;54;21087;-69
2021/11/06 01:09:36;;;;;;;5.12;2.95;;;6.90;71.70;;;;;;2562395;53;20968;-69
2021/11/06 01:12:03;;;;;;;6.80;3.53;;;6.90;71.80;;;;;;2327566;54;21096;-69
2021/11/06 01:14:29;;;;;;;5.37;3.00;;;7.00;72.20;;;;;;2317428;54;21105;-70
2021/11/06 01:16:55;;;;;;;4.68;2.65;;;7.00;72.30;;;;;;2335123;54;20917;-68
2021/11/06 01:19:22;;;;;;;4.53;2.58;;;6.90;72.20;;;;;;2572726;53;20906;-68
2021/11/06 01:21:48;;;;;;;6.03;3.10;;;6.90;72.20;;;;;;2337770;54;21446;-69
2021/11/06 01:24:14;;;;;;;7.22;3.33;;;6.90;72.20;;;;;;2327691;54;20949;-68
2021/11/06 01:26:42;;;;;;;5.85;2.80;;;6.90;72.10;;;;;;2586986;53;20953;-68
2021/11/06 01:29:08;;;;;;;4.70;2.70;;;6.90;72.00;;;;;;2342373;54;20940;-68
2021/11/06 01:31:35;;;;;;;7.12;2.97;;;6.90;72.00;;;;;;2337383;54;21502;-67
2021/11/06 01:34:02;;;;;;;7.53;3.03;;;6.90;72.00;;;;;;2566284;53;21060;-70
2021/11/06 01:36:28;;;;;;;5.20;3.00;;;6.90;72.00;;;;;;2582852;53;20996;-68
2021/11/06 01:39:09;;;;;;;5.22;2.92;;;6.90;72.70;;;;;;2321015;54;21032;-69
2021/11/06 01:41:36;;;;;;;5.28;2.55;;;6.90;71.80;;;;;;2530109;54;21013;-68
2021/11/06 01:44:02;;;;;;;4.97;2.33;;;6.80;71.90;;;;;;2568186;53;20953;-69
2021/11/06 01:46:29;;;;;;;4.93;2.70;;;6.90;72.00;;;;;;2582359;53;21052;-68
2021/11/06 01:48:57;;;;;;;5.35;2.17;;;6.80;71.90;;;;;;2322594;54;21000;-68
2021/11/06 01:51:23;;;;;;;5.37;2.78;;;6.80;71.90;;;;;;2328956;54;21489;-68
2021/11/06 01:53:49;;;;;;;4.37;2.47;;;6.80;71.90;;;;;;2570700;52;20985;-68
2021/11/06 01:56:16;;;;;;;5.43;2.47;;;6.80;72.00;;;;;;2585023;53;20981;-68
2021/11/06 01:58:43;;;;;;;4.65;2.75;;;6.80;71.90;;;;;;2589618;53;20925;-69
2021/11/06 02:01:10;;;;;;;4.55;2.53;;;6.70;71.70;;;;;;2589969;53;20941;-68
2021/11/06 02:03:36;;;;;;;4.60;2.37;;;6.70;71.60;;;;;;2555614;53;20969;-69
2021/11/06 02:06:02;;;;;;;5.15;2.90;;;6.70;71.60;;;;;;2582516;53;21799;-69
2021/11/06 02:08:29;;;;;;;5.03;2.60;;;6.70;71.60;;;;;;2324572;54;20961;-69
2021/11/06 02:10:55;;;;;;;5.43;2.35;;;6.70;71.60;;;;;;2331216;54;21075;-68
2021/11/06 02:13:21;;;;;;;4.45;2.37;;;6.60;71.50;;;;;;2326895;54;20939;-68
2021/11/06 02:15:48;;;;;;;5.87;2.40;;;6.60;71.50;;;;;;2330939;54;21001;-68
2021/11/06 02:18:15;;;;;;;4.47;2.10;;;6.60;71.50;;;;;;2313901;54;20997;-68
2021/11/06 02:20:48;;;;;;;5.03;2.55;;;6.60;71.50;;;;;;2569483;53;20941;-68
2021/11/06 02:23:15;;;;;;;4.68;2.40;;;6.60;71.50;;;;;;2346920;54;20957;-68
2021/11/06 02:25:42;;;;;;;4.75;2.35;;;6.50;71.40;;;;;;2563658;53;20957;-67
2021/11/06 02:28:10;;;;;;;6.25;2.67;;;6.50;71.40;;;;;;2335217;54;21752;-68
2021/11/06 02:30:37;;;;;;;4.85;3.00;;;6.50;71.40;;;;;;2570515;53;21716;-69
2021/11/06 02:33:04;;;;;;;4.90;2.47;;;6.50;71.40;;;;;;2567097;53;20945;-68
2021/11/06 02:35:30;;;;;;;4.95;2.53;;;6.40;71.30;;;;;;2590574;53;20969;-69
2021/11/06 02:37:58;;;;;;;5.20;2.33;;;6.40;71.50;;;;;;2333219;54;21397;-69
2021/11/06 02:40:25;;;;;;;5.05;2.92;;;6.40;71.50;;;;;;2579599;53;20921;-68
2021/11/06 02:42:56;;;;;;;4.95;2.55;;;6.40;71.70;;;;;;2325114;54;21028;-69
2021/11/06 02:45:22;;;;;;;7.03;2.97;;;6.40;71.90;;;;;;2576242;53;20937;-68
2021/11/06 02:47:49;;;;;;;6.15;3.12;;;6.40;71.90;;;;;;2332292;54;20933;-69
2021/11/06 02:50:16;;;;;;;12.18;3.20;;;6.40;71.90;;;;;;2590656;53;21004;-69
2021/11/06 02:52:45;;;;;;;8.23;2.87;;;6.40;72.00;;;;;;2344240;54;20985;-68
2021/11/06 02:55:11;;;;;;;8.75;2.78;;;6.40;72.10;;;;;;2590600;53;21690;-69
2021/11/06 02:57:38;;;;;;;4.18;2.25;;;6.40;72.20;;;;;;2344843;54;20985;-68
2021/11/06 03:00:09;;;;;;;7.25;3.30;;;6.30;72.20;;;;;;2344980;54;20921;-69
2021/11/06 03:02:36;;;;;;;6.87;3.60;;;6.30;72.60;;;;;;2327328;54;20908;-68
2021/11/06 03:05:06;;;;;;;5.50;3.25;;;6.40;72.90;;;;;;2584558;53;20901;-69
2021/11/06 03:07:33;;;;;;;5.57;3.10;;;6.40;73.10;;;;;;2566192;53;20917;-68
2021/11/06 03:09:59;;;;;;;5.40;3.15;;;6.40;73.30;;;;;;2590966;53;21001;-68
2021/11/06 03:12:26;;;;;;;6.60;3.55;;;6.40;73.50;;;;;;2344369;54;20925;-69
2021/11/06 03:14:54;;;;;;;7.68;3.83;;;6.50;73.60;;;;;;2591109;53;20921;-68
2021/11/06 03:17:23;;;;;;;6.28;3.22;;;6.50;73.60;;;;;;2343596;54;21002;-69
2021/11/06 03:19:51;;;;;;;5.62;3.15;;;6.50;73.60;;;;;;2543060;53;21414;-68
2021/11/06 03:22:18;;;;;;;5.80;3.15;;;6.50;73.50;;;;;;2344011;54;20920;-69
2021/11/06 03:24:45;;;;;;;5.57;2.85;;;6.60;73.50;;;;;;2589652;53;20984;-68
2021/11/06 03:27:12;;;;;;;5.65;3.03;;;6.60;73.30;;;;;;2344336;54;20937;-68
2021/11/06 03:29:38;;;;;;;6.12;3.30;;;6.60;73.10;;;;;;2563362;53;21076;-69
2021/11/06 03:32:06;;;;;;;5.43;3.15;;;6.30;72.70;;;;;;2322798;54;21005;-68
2021/11/06 03:34:33;;;;;;;5.95;3.33;;;6.60;72.90;;;;;;2591255;53;20929;-68
2021/11/06 03:36:59;;;;;;;5.70;3.30;;;6.60;72.50;;;;;;2584873;53;21097;-68
2021/11/06 03:39:27;;;;;;;5.80;3.33;;;6.60;72.40;;;;;;2544064;53;21433;-70
2021/11/06 03:41:57;;;;;;;5.37;3.10;;;6.60;72.30;;;;;;2591078;53;21682;-68
2021/11/06 03:44:23;;;;;;;7.75;2.72;;;6.60;72.30;;;;;;2590874;53;21402;-68
2021/11/06 03:46:51;;;;;;;7.97;3.03;;;6.60;72.10;;;;;;2344514;54;20968;-69
2021/11/06 03:49:18;;;;;;;5.30;3.00;;;6.50;71.90;;;;;;2591024;53;20997;-68
2021/11/06 03:51:45;;;;;;;5.57;3.35;;;6.50;71.70;;;;;;2343701;54;21843;-69
2021/11/06 03:54:11;;;;;;;5.55;3.15;;;6.50;71.70;;;;;;2589123;53;21731;-69
2021/11/06 03:56:38;;;;;;;6.00;3.12;;;6.50;71.70;;;;;;2557449;53;20941;-68
2021/11/06 03:59:04;;;;;;;5.95;3.55;;;6.30;71.40;;;;;;2322368;54;20933;-68
2021/11/06 04:01:31;;;;;;;6.10;3.42;;;6.40;71.40;;;;;;2342756;54;20933;-68
2021/11/06 04:03:58;;;;;;;4.65;2.78;;;6.40;71.30;;;;;;2549089;53;21017;-69
2021/11/06 04:06:24;;;;;;;6.07;3.17;;;6.30;71.20;;;;;;2320296;54;20972;-68
2021/11/06 04:08:54;;;;;;;7.35;3.17;;;6.30;71.20;;;;;;2560599;53;21029;-69
2021/11/06 04:11:21;;;;;;;5.25;3.10;;;6.30;71.20;;;;;;2588208;53;20945;-68
2021/11/06 04:13:47;;;;;;;5.50;2.78;;;6.30;71.20;;;;;;2579766;53;20961;-68
2021/11/06 04:16:14;;;;;;;4.45;2.70;;;6.20;71.10;;;;;;2556111;53;20996;-69
2021/11/06 04:18:40;;;;;;;7.47;2.40;;;6.20;71.20;;;;;;2570761;53;20969;-68
2021/11/06 04:21:07;;;;;;;5.03;2.70;;;6.20;71.10;;;;;;2557707;53;20980;-69
2021/11/06 04:23:34;;;;;;;4.60;2.67;;;6.10;71.00;;;;;;2587516;53;21447;-69
2021/11/06 04:26:00;;;;;;;5.20;2.80;;;6.10;71.00;;;;;;2578998;53;21477;-70
2021/11/06 04:28:28;;;;;;;5.37;2.92;;;6.10;71.00;;;;;;2331791;54;21012;-68
2021/11/06 04:30:55;;;;;;;4.93;2.75;;;5.80;70.70;;;;;;2344061;54;20970;-69
2021/11/06 04:33:21;;;;;;;6.70;3.20;;;6.00;70.90;;;;;;2590956;53;20941;-68
2021/11/06 04:35:48;;;;;;;4.57;2.58;;;6.00;70.90;;;;;;2344991;54;20972;-69
2021/11/06 04:38:17;;;;;;;4.20;2.25;;;6.00;70.90;;;;;;2565077;53;21398;-68
2021/11/06 04:40:43;;;;;;;4.72;2.92;;;5.90;70.80;;;;;;2345943;54;20949;-68
2021/11/06 04:43:10;;;;;;;4.40;2.50;;;5.90;70.80;;;;;;2331639;54;20929;-69
2021/11/06 04:45:37;;;;;;;4.20;2.30;;;5.90;71.50;;;;;;2338647;54;20976;-70
2021/11/06 04:48:04;;;;;;;3.65;2.17;;;5.90;70.80;;;;;;2544895;53;20957;-69
2021/11/06 04:50:31;;;;;;;4.43;2.42;;;5.80;70.70;;;;;;2324922;54;21032;-69
2021/11/06 04:53:00;;;;;;;4.57;2.70;;;5.80;70.70;;;;;;2561527;53;21624;-68
2021/11/06 04:55:27;;;;;;;4.30;2.60;;;5.80;70.80;;;;;;2339452;54;20977;-68
2021/11/06 04:57:54;;;;;;;4.18;2.28;;;5.80;70.80;;;;;;2574088;53;20949;-68
2021/11/06 05:00:21;;;;;;;4.47;2.67;;;5.70;70.70;;;;;;2568019;53;21028;-68
2021/11/06 05:02:47;;;;;;;4.93;2.70;;;5.70;70.70;;;;;;2556772;53;20945;-68
2021/11/06 05:05:13;;;;;;;4.60;2.65;;;5.70;70.80;;;;;;2344487;54;21012;-67
2021/11/06 05:07:40;;;;;;;4.70;2.83;;;5.60;70.70;;;;;;2590662;53;21445;-69
2021/11/06 05:10:07;;;;;;;4.07;2.25;;;5.60;70.70;;;;;;2344039;54;20981;-69
2021/11/06 05:12:34;;;;;;;4.30;2.50;;;5.60;70.70;;;;;;2565996;53;21464;-70
2021/11/06 05:15:05;;;;;;;3.80;2.20;;;5.60;70.80;;;;;;2343225;54;21054;-68
2021/11/06 05:17:31;;;;;;;4.60;2.53;;;5.50;70.70;;;;;;2344197;54;20925;-69
2021/11/06 05:19:59;;;;;;;3.92;2.20;;;5.50;70.70;;;;;;2343701;54;21001;-68
2021/11/06 05:22:26;;;;;;;4.82;2.60;;;5.50;70.80;;;;;;2563014;53;20917;-68
2021/11/06 05:24:53;;;;;;;4.55;2.35;;;5.40;70.80;;;;;;2343794;54;20941;-69
2021/11/06 05:27:20;;;;;;;4.30;2.35;;;5.40;70.70;;;;;;2590113;53;20944;-68
2021/11/06 05:29:51;;;;;;;3.92;2.10;;;5.40;70.80;;;;;;2343907;54;20980;-68
2021/11/06 05:32:17;;;;;;;3.80;2.03;;;5.40;70.80;;;;;;2333026;54;20973;-69
2021/11/06 05:34:44;;;;;;;4.30;2.40;;;5.30;70.70;;;;;;2565480;53;20977;-68
2021/11/06 05:37:10;;;;;;;3.28;1.83;;;5.30;70.80;;;;;;2558187;53;20953;-68
2021/11/06 05:39:37;;;;;;;3.83;2.05;;;5.30;70.90;;;;;;2588926;53;20969;-69
2021/11/06 05:42:04;;;;;;;3.78;2.03;;;5.30;70.90;;;;;;2344717;54;20960;-68
2021/11/06 05:44:31;;;;;;;3.28;1.60;;;5.30;70.90;;;;;;2343811;54;20980;-70
2021/11/06 05:46:58;;;;;;;4.18;2.20;;;5.30;71.00;;;;;;2588939;53;21001;-67
2021/11/06 05:49:25;;;;;;;4.25;2.17;;;5.30;71.10;;;;;;2560214;53;21815;-68
2021/11/06 05:52:00;;;;;;;6.30;3.40;;;5.30;71.10;;;;;;2571623;53;20956;-70
2021/11/06 05:54:29;;;;;;;6.25;3.22;;;5.20;70.90;;;;;;2335699;54;21774;-68
2021/11/06 05:56:55;;;;;;;6.32;3.33;;;5.20;71.00;;;;;;2591138;53;20981;-69
2021/11/06 05:59:23;;;;;;;7.35;3.42;;;5.20;71.20;;;;;;2344154;54;20983;-69
2021/11/06 06:01:49;;;;;;;10.55;3.50;;;5.20;71.30;;;;;;2577307;53;21049;-68
2021/11/06 06:04:16;;;;;;;10.27;3.20;;;5.20;72.10;;;;;;2320279;54;20964;-68
2021/11/06 06:06:42;;;;;;;8.30;3.20;;;5.20;71.40;;;;;;2323776;54;20893;-68
2021/11/06 06:09:09;;;;;;;6.43;3.08;;;5.20;71.30;;;;;;2324353;54;21398;-69
2021/11/06 06:11:35;;;;;;;6.97;3.58;;;5.20;71.30;;;;;;2586455;53;20988;-68
2021/11/06 06:14:02;;;;;;;6.10;3.75;;;5.10;71.20;;;;;;2319167;54;20917;-68
2021/11/06 06:16:28;;;;;;;10.23;3.90;;;5.10;71.30;;;;;;2586450;53;21001;-68
2021/11/06 06:18:54;;;;;;;6.55;4.00;;;5.10;71.40;;;;;;2344148;54;20992;-68
2021/11/06 06:21:20;;;;;;;5.30;3.45;;;5.10;71.30;;;;;;2564321;53;21112;-68
2021/11/06 06:23:48;;;;;;;5.70;3.50;;;5.10;71.30;;;;;;2317643;54;20989;-69
2021/11/06 06:26:15;;;;;;;5.47;3.22;;;5.00;71.30;;;;;;2568736;52;21028;-68
2021/11/06 06:28:44;;;;;;;8.25;4.18;;;5.10;71.50;;;;;;2328862;54;20917;-68
2021/11/06 06:31:11;;;;;;;6.50;4.03;;;5.00;71.60;;;;;;2554983;53;21525;-69
2021/11/06 06:33:37;;;;;;;8.07;4.22;;;5.10;71.80;;;;;;2328517;54;20993;-69
2021/11/06 06:36:04;;;;;;;6.05;3.87;;;5.10;71.80;;;;;;2566297;53;20969;-67
2021/11/06 06:38:33;;;;;;;6.87;3.35;;;5.10;71.80;;;;;;2333588;54;20940;-69
2021/11/06 06:41:00;;;;;;;5.82;3.67;;;5.10;71.80;;;;;;2575249;53;20938;-68
2021/11/06 06:43:27;;;;;;;5.97;3.42;;;5.10;71.70;;;;;;2326277;54;20925;-68
2021/11/06 06:45:54;;;;;;;8.07;3.87;;;5.10;71.60;;;;;;2588185;53;20946;-69
2021/11/06 06:48:20;;;;;;;11.15;4.28;;;5.00;71.30;;;;;;2342517;54;20953;-69
2021/11/06 06:50:49;;;;;;;6.53;3.70;;;5.00;71.20;;;;;;2577541;53;20952;-69
2021/11/06 06:53:17;;;;;;;5.90;3.55;;;5.10;71.30;;;;;;2324095;54;21181;-69
2021/11/06 06:55:44;;;;;;;5.75;3.67;;;5.10;71.30;;;;;;2336511;54;21092;-68
2021/11/06 06:58:11;;;;;;;6.20;3.67;;;5.00;71.20;;;;;;2328188;54;21008;-69
2021/11/06 07:00:41;;;;;;;12.27;4.43;;;5.00;71.40;;;;;;2565365;53;20956;-68
2021/11/06 07:03:09;;;;;;;11.82;4.45;;;5.00;71.50;;;;;;2323059;54;20961;-68
2021/11/06 07:05:36;;;;;;;9.77;4.00;;;5.00;71.70;;;;;;2321141;54;20997;-70
2021/11/06 07:08:04;;;;;;;8.40;3.47;;;5.00;71.80;;;;;;2341628;54;20956;-69
2021/11/06 07:10:33;;;;;;;9.88;3.80;;;5.10;72.00;;;;;;2341753;54;21021;-67
2021/11/06 07:13:00;;;;;;;9.05;3.60;;;5.00;71.90;;;;;;2588398;53;20961;-70
2021/11/06 07:15:26;;;;;;;8.05;3.58;;;5.10;72.10;;;;;;2342537;54;20870;-69
2021/11/06 07:17:53;;;;;;;7.75;3.17;;;5.10;72.10;;;;;;2320552;54;21032;-68
2021/11/06 07:20:20;;;;;;;6.20;3.62;;;5.10;72.10;;;;;;2337281;54;21628;-68
2021/11/06 07:22:47;;;;;;;13.45;3.80;;;5.10;72.10;;;;;;2320686;54;21919;-68
2021/11/06 07:25:14;;;;;;;5.62;3.17;;;5.10;72.10;;;;;;2320854;54;20985;-68
2021/11/06 07:27:40;;;;;;;9.65;3.83;;;5.10;72.10;;;;;;2320972;54;20960;-69
2021/11/06 07:30:07;;;;;;;8.07;3.47;;;5.20;72.20;;;;;;2576388;53;20968;-69
2021/11/06 07:32:35;;;;;;;8.57;2.90;;;5.20;72.10;;;;;;2343903;54;20933;-68
2021/11/06 07:35:01;;;;;;;6.00;2.33;;;5.20;72.00;;;;;;2318089;54;21084;-69
2021/11/06 07:37:28;;;;;;;6.65;2.40;;;5.20;71.90;;;;;;2317583;55;20945;-68
2021/11/06 07:39:54;;;;;;;4.20;2.40;;;5.20;71.90;;;;;;2339753;54;20959;-67
2021/11/06 07:42:20;;;;;;;4.00;2.58;;;5.20;71.90;;;;;;2318385;54;20945;-69
2021/11/06 07:44:56;;;;;;;6.03;3.42;;;5.20;72.00;;;;;;2328596;54;20965;-70
2021/11/06 07:47:25;;;;;;;5.30;3.03;;;5.20;72.00;;;;;;2331904;54;21033;-68
2021/11/06 07:49:51;;;;;;;6.85;3.92;;;5.20;72.10;;;;;;2562209;53;20975;-68
2021/11/06 07:52:17;;;;;;;7.45;4.28;;;5.20;72.20;;;;;;2564280;53;20969;-68
2021/11/06 07:54:44;;;;;;;9.35;4.43;;;5.20;72.40;;;;;;2341459;54;20960;-68
2021/11/06 07:57:11;;;;;;;8.07;4.70;;;5.30;72.60;;;;;;2342001;54;20949;-68
2021/11/06 07:59:37;;;;;;;8.27;4.80;;;5.30;72.70;;;;;;2342053;54;20968;-68
2021/11/06 08:02:04;;;;;;;7.70;5.03;;;5.30;73.00;;;;;;2342019;54;21349;-70
2021/11/06 08:04:30;;;;;;;8.57;5.25;;;5.40;73.30;;;;;;2315585;55;20953;-68
2021/11/06 08:06:57;;;;;;;8.52;4.55;;;5.40;73.50;;;;;;2321286;54;21083;-69
2021/11/06 08:09:25;;;;;;;7.45;4.75;;;5.50;73.70;;;;;;2319265;53;22013;-68
2021/11/06 08:11:52;;;;;;;10.57;6.15;;;5.50;73.70;;;;;;2336574;54;21394;-69
2021/11/06 08:14:20;;;;;;;10.85;6.18;;;5.70;74.00;;;;;;2570601;53;20973;-68
2021/11/06 08:16:49;;;;;;;22.62;9.65;;;5.70;74.00;;;;;;2567220;53;21428;-68
2021/11/06 08:19:49;;;;;;;18.50;8.52;;;5.70;74.10;;;;;;2321045;54;20981;-68
2021/11/06 08:22:15;;;;;;;20.65;10.57;;;5.80;74.20;;;;;;2588990;53;20925;-68
2021/11/06 08:24:41;;;;;;;16.33;8.52;;;5.80;74.30;;;;;;2342161;54;20990;-68
2021/11/06 08:27:08;;;;;;;17.12;8.00;;;5.90;74.40;;;;;;2339823;54;20985;-68
2021/11/06 08:29:37;;;;;;;9.68;6.28;;;6.00;74.60;;;;;;2318760;54;20932;-68
2021/11/06 08:32:04;;;;;;;9.43;5.20;;;6.00;74.70;;;;;;2322547;54;21901;-68
2021/11/06 08:34:30;;;;;;;9.73;4.75;;;6.10;74.80;;;;;;2323190;54;20976;-68
2021/11/06 08:36:57;;;;;;;9.20;4.45;;;6.20;75.60;;;;;;2335762;54;20981;-69
2021/11/06 08:39:27;;;;;;;8.35;4.47;;;6.20;74.90;;;;;;2317819;54;20964;-68
2021/11/06 08:41:57;;;;;;;6.35;4.20;;;6.30;75.00;;;;;;2339382;54;21854;-69
2021/11/06 08:44:24;;;;;;;5.97;3.97;;;6.40;75.20;;;;;;2342505;54;21559;-70
2021/11/06 08:46:52;;;;;;;8.10;3.90;;;6.40;75.30;;;;;;2558721;53;21480;-68
2021/11/06 08:49:21;;;;;;;7.15;3.90;;;6.50;75.60;;;;;;2342264;54;21438;-68
2021/11/06 08:51:48;;;;;;;7.47;4.00;;;6.60;75.70;;;;;;2340866;54;20929;-68
2021/11/06 08:54:16;;;;;;;8.50;5.37;;;6.60;75.70;;;;;;2341892;54;20933;-68
2021/11/06 08:56:43;;;;;;;7.57;4.72;;;6.70;75.80;;;;;;2588398;53;20944;-68
2021/11/06 08:59:11;;;;;;;7.62;3.67;;;6.80;75.80;;;;;;2342251;54;20937;-68
2021/11/06 09:01:38;;;;;;;8.15;4.40;;;6.90;75.90;;;;;;2342268;54;21700;-69
2021/11/06 09:04:05;;;;;;;7.37;4.43;;;6.90;76.00;;;;;;2330948;54;20958;-69
2021/11/06 09:06:34;;;;;;;7.40;4.80;;;7.00;76.30;;;;;;2324110;54;21525;-68
2021/11/06 09:09:14;;;;;;;7.93;4.72;;;7.10;77.20;;;;;;2318589;54;21844;-69
2021/11/06 09:11:41;;;;;;;7.45;4.87;;;7.30;78.90;;;;;;2588301;53;21025;-69
2021/11/06 09:14:09;;;;;;;6.80;4.60;;;7.60;81.00;;;;;;2325404;54;20972;-69
2021/11/06 09:16:35;;;;;;;8.85;6.22;;;7.90;82.60;;;;;;2341175;54;20961;-69
2021/11/06 09:19:05;;;;;;;9.05;6.35;;;8.20;83.40;;;;;;2322976;54;21040;-69
2021/11/06 09:21:32;;;;;;;8.70;5.30;;;8.50;83.10;;;;;;2588738;53;21473;-70
2021/11/06 09:24:03;;;;;;;8.85;6.32;;;8.80;82.20;;;;;;2324790;54;20989;-70
2021/11/06 09:26:34;;;;;;;7.20;5.28;;;9.00;80.90;;;;;;2327881;54;20945;-68
2021/11/06 09:29:00;;;;;;;8.88;5.82;;;9.10;79.40;;;;;;2327518;54;21073;-70
2021/11/06 09:31:26;;;;;;;11.02;5.12;;;9.20;78.60;;;;;;2321248;54;20952;-69
2021/11/06 09:33:57;;;;;;;10.05;5.22;;;9.30;77.80;;;;;;2339357;54;22056;-69
2021/11/06 09:36:24;;;;;;;9.38;5.87;;;9.30;77.20;;;;;;2356512;53;1819352;-69
2021/11/06 09:38:54;;;;;;;7.85;5.68;;;9.30;76.90;;;;;;2331323;54;20964;-69
2021/11/06 09:41:21;;;;;;;8.57;4.53;;;9.30;76.20;;;;;;2342263;54;20910;-69
2021/11/06 09:43:47;;;;;;;7.37;5.10;;;9.30;75.80;;;;;;2341179;54;21044;-68
2021/11/06 09:46:16;;;;;;;6.95;4.47;;;9.30;75.60;;;;;;2341977;54;20921;-69
2021/11/06 09:48:45;;;;;;;15.32;9.13;;;9.30;75.70;;;;;;2337522;54;21031;-69
2021/11/06 09:51:13;;;;;;;11.05;7.60;;;9.30;75.90;;;;;;2329139;54;21028;-69
2021/11/06 09:53:43;;;;;;;9.15;6.37;;;9.30;76.00;;;;;;2325575;54;21370;-71
2021/11/06 09:56:21;;;;;;;11.55;5.90;;;9.40;76.00;;;;;;2339223;54;21959;-69
2021/11/06 09:58:47;;;;;;;7.47;5.05;;;9.40;75.80;;;;;;2341859;54;21041;-70
2021/11/06 10:01:14;;;;;;;7.40;5.20;;;9.40;75.70;;;;;;2341369;54;21017;-70
2021/11/06 10:03:42;;;;;;;7.68;4.75;;;9.40;75.80;;;;;;2330252;54;21081;-69
2021/11/06 10:06:22;;;;;;;9.27;4.87;;;9.40;75.80;;;;;;2333386;54;21489;-70
2021/11/06 10:08:52;;;;;;;6.53;4.05;;;9.50;75.60;;;;;;2341893;54;21512;-68
2021/11/06 10:11:25;;;;;;;8.02;5.05;;;9.50;75.90;;;;;;2342351;54;20961;-68
2021/11/06 10:14:17;;;;;;;10.23;5.50;;;9.50;76.10;;;;;;2588247;53;20933;-69
2021/11/06 10:16:53;;;;;;;12.13;5.82;;;9.60;76.40;;;;;;2342020;54;20921;-69
2021/11/06 10:19:26;;;;;;;8.07;5.30;;;9.70;76.30;;;;;;2588492;53;20986;-69
2021/11/06 10:22:12;;;;;;;6.90;4.57;;;9.70;76.10;;;;;;2341948;54;20933;-69
2021/11/06 10:24:48;;;;;;;8.18;5.10;;;9.80;75.80;;;;;;2332772;54;21512;-69
2021/11/06 10:27:26;;;;;;;8.52;5.43;;;9.80;75.90;;;;;;2579270;53;20929;-69
2021/11/06 10:30:14;;;;;;;8.75;5.60;;;9.80;75.90;;;;;;2341362;54;21743;-68
2021/11/06 10:33:04;;;;;;;7.82;5.57;;;9.90;75.40;;;;;;2556381;53;21028;-69
2021/11/06 10:35:33;;;;;;;9.20;5.28;;;9.90;75.50;;;;;;2342269;54;21422;-69
2021/11/06 10:38:09;;;;;;;8.00;5.25;;;9.90;75.40;;;;;;2567055;53;21815;-69
2021/11/06 10:40:41;;;;;;;9.85;5.68;;;10.00;74.10;;;;;;2318073;54;20992;-68
2021/11/06 10:43:07;;;;;;;8.63;5.53;;;10.00;73.90;;;;;;2342295;54;21398;-69
2021/11/06 10:45:35;;;;;;;8.38;5.70;;;10.00;73.80;;;;;;2344200;54;22252;-69
2021/11/06 10:48:09;;;;;;;11.12;6.05;;;10.00;73.80;;;;;;2581645;53;21104;-71
2021/11/06 10:50:49;;;;;;;7.25;5.07;;;10.00;73.60;;;;;;2329174;54;21425;-69
2021/11/06 11:03:49;;;;;;;8.38;5.22;;;10.10;74.00;;;;;;2322656;54;20997;-70
2021/11/06 11:06:18;;;;;;;6.50;4.00;;;10.30;73.70;;;;;;2558496;53;21045;-70
2021/11/06 11:08:49;;;;;;;8.15;5.30;;;10.40;74.70;;;;;;2318545;54;21422;-70
2021/11/06 11:11:19;;;;;;;9.15;5.93;;;10.40;75.00;;;;;;2333894;54;20925;-69
2021/11/06 11:13:50;;;;;;;10.23;7.25;;;10.40;74.90;;;;;;2586452;53;20921;-69
2021/11/06 11:16:17;;;;;;;13.52;8.85;;;10.50;74.80;;;;;;2335728;54;21446;-69
2021/11/06 11:18:44;;;;;;;11.12;7.43;;;10.50;74.70;;;;;;2326861;54;20941;-69
2021/11/06 11:21:41;;;;;;;8.80;6.70;;;10.60;74.80;;;;;;2580520;53;21048;-70
2021/11/06 11:24:15;;;;;;;9.98;7.18;;;10.60;74.50;;;;;;2547353;53;21471;-71
2021/11/06 11:26:52;;;;;;;10.10;6.68;;;10.70;75.40;;;;;;2341679;54;21001;-71
2021/11/06 11:29:24;;;;;;;8.70;6.25;;;10.80;75.60;;;;;;2341588;54;21803;-70
2021/11/06 11:31:50;;;;;;;10.68;7.12;;;10.80;75.90;;;;;;2558215;53;20940;-69
2021/11/06 11:34:17;;;;;;;10.63;6.82;;;10.90;76.10;;;;;;2332472;54;21489;-70
2021/11/06 11:36:44;;;;;;;12.23;7.80;;;11.00;76.30;;;;;;2558735;53;20989;-68
2021/11/06 11:39:16;;;;;;;10.95;7.37;;;11.10;76.60;;;;;;2341754;54;20936;-70
2021/11/06 11:45:39;;;;;;;9.95;7.12;;;11.20;76.70;;;;;;2340957;54;21013;-70
2021/11/06 11:48:21;;;;;;;8.77;5.40;;;11.50;75.90;;;;;;2342462;54;20925;-69
2021/11/06 11:50:48;;;;;;;9.75;6.50;;;11.60;77.10;;;;;;2341943;54;20949;-70
2021/11/06 11:53:28;;;;;;;11.68;8.05;;;11.60;77.40;;;;;;2340022;54;20976;-70
2021/11/06 11:55:55;;;;;;;11.43;8.15;;;11.80;77.30;;;;;;2328931;54;21710;-71
2021/11/06 11:58:35;;;;;;;12.23;8.52;;;11.70;77.50;;;;;;2321548;54;20973;-70
2021/11/06 12:01:01;;;;;;;11.50;8.40;;;11.90;77.30;;;;;;2323532;54;21081;-69
2021/11/06 12:03:47;;;;;;;14.68;9.50;;;12.00;77.60;;;;;;2328448;54;21008;-69
2021/11/06 12:09:45;;;;;;;12.65;8.57;;;12.10;76.90;;;;;;2345822;54;21099;-69
2021/11/06 12:12:11;;;;;;;9.63;6.78;;;12.30;75.60;;;;;;2344036;54;20976;-70
2021/11/06 12:14:44;;;;;;;10.93;7.47;;;12.30;76.50;;;;;;2342626;54;20890;-69
2021/11/06 12:17:11;;;;;;;11.40;7.22;;;12.40;76.50;;;;;;2304234;55;21005;-70
2021/11/06 12:19:56;;;;;;;10.13;7.22;;;12.40;76.40;;;;;;2329893;54;20941;-70
2021/11/06 12:22:32;;;;;;;11.00;8.00;;;12.40;76.30;;;;;;2340716;54;21879;-70
2021/11/06 12:25:18;;;;;;;12.23;8.13;;;12.50;76.80;;;;;;2322900;54;21028;-70
2021/11/06 12:27:52;;;;;;;12.07;8.07;;;12.50;76.30;;;;;;2588573;53;21044;-69
2021/11/06 12:30:51;;;;;;;11.93;8.13;;;12.60;77.50;;;;;;2588727;53;20950;-70
2021/11/06 12:33:45;;;;;;;12.07;8.43;;;12.70;76.80;;;;;;2588776;53;20941;-70
2021/11/06 12:36:24;;;;;;;11.73;7.97;;;12.80;77.50;;;;;;2323253;55;21013;-70
2021/11/06 12:38:57;;;;;;;12.27;8.07;;;12.90;77.60;;;;;;2341030;54;20928;-71
2021/11/06 12:41:28;;;;;;;14.18;8.90;;;13.00;78.20;;;;;;2334927;54;21045;-70
2021/11/06 12:43:55;;;;;;;13.93;9.18;;;13.10;78.10;;;;;;2561568;53;20933;-69
2021/11/06 12:46:26;;;;;;;13.57;9.60;;;13.20;78.00;;;;;;2342159;54;20957;-70
2021/11/06 12:49:00;;;;;;;11.27;8.73;;;13.30;78.10;;;;;;2588035;53;20988;-71
2021/11/06 12:51:33;;;;;;;12.07;8.80;;;13.40;78.60;;;;;;2342090;54;21032;-69
2021/11/06 12:54:02;;;;;;;12.77;9.10;;;13.50;78.30;;;;;;2342126;54;20917;-70
2021/11/06 12:58:20;;;;;;;11.50;8.32;;;13.70;78.50;;;;;;2326476;54;20981;-71
2021/11/06 13:00:46;;;;;;;11.52;7.60;;;13.80;76.60;;;;;;2322681;55;21072;-71
2021/11/06 13:03:35;;;;;;;12.70;8.25;;;13.90;78.00;;;;;;2339175;54;21584;-71
2021/11/06 13:06:15;;;;;;;10.63;7.78;;;13.90;76.60;;;;;;2570004;53;21033;-72
2021/11/06 13:08:41;;;;;;;9.15;6.85;;;14.00;77.60;;;;;;2325234;54;21496;-71
2021/11/06 13:11:08;;;;;;;9.07;6.85;;;14.10;77.70;;;;;;2576338;53;21064;-70
2021/11/06 13:13:35;;;;;;;11.50;7.43;;;14.20;77.60;;;;;;2319971;54;21943;-71
2021/11/06 13:16:03;;;;;;;10.45;7.70;;;14.30;77.40;;;;;;2588058;53;20921;-71
2021/11/06 13:18:29;;;;;;;12.25;7.72;;;14.40;77.50;;;;;;2338389;54;21064;-71
2021/11/06 13:20:59;;;;;;;11.12;8.00;;;14.40;77.50;;;;;;2325604;54;20949;-71